createdAt,value
2023-04-28T00:00:55.779Z,95535.19
2023-04-28T00:03:23.943Z,95546.19
2023-04-28T00:05:54.079Z,95536.97
2023-04-28T00:08:23.649Z,95550.50
2023-04-28T00:10:51.650Z,95542.94
2023-04-28T00:13:19.698Z,95556.44
2023-04-28T00:15:47.757Z,95537.88
2023-04-28T00:18:17.310Z,95553.56
2023-04-28T00:20:45.490Z,95520.34
2023-04-28T00:23:13.429Z,95514.69
2023-04-28T00:25:41.391Z,95540.78
2023-04-28T00:28:09.381Z,95536.63
2023-04-28T00:30:37.379Z,95557.06
2023-04-28T00:33:06.148Z,95528.59
2023-04-28T00:35:35.501Z,95559.63
2023-04-28T00:38:03.546Z,95544.34
2023-04-28T00:40:35.070Z,95557.66
2023-04-28T00:43:03.068Z,95563.59
2023-04-28T00:45:31.270Z,95567.97
2023-04-28T00:48:00.487Z,95548.91
2023-04-28T00:50:28.607Z,95545.94
2023-04-28T00:52:58.119Z,95547.41
2023-04-28T00:55:27.592Z,95569.75
2023-04-28T00:57:57.560Z,95555.44
2023-04-28T01:00:25.621Z,95548.91
2023-04-28T01:02:54.881Z,95570.81
2023-04-28T01:05:24.171Z,95535.75
2023-04-28T01:07:52.265Z,95572.78
2023-04-28T01:10:21.670Z,95573.19
2023-04-28T01:12:49.664Z,95575.63
2023-04-28T01:15:19.065Z,95580.19
2023-04-28T01:17:47.824Z,95568.84
2023-04-28T01:20:16.149Z,95577.88
2023-04-28T01:22:44.279Z,95594.22
2023-04-28T01:25:13.686Z,95561.50
2023-04-28T01:27:41.683Z,95590.19
2023-04-28T01:30:11.005Z,95591.34
2023-04-28T01:32:39.010Z,95585.28
2023-04-28T01:35:07.703Z,95555.47
2023-04-28T01:37:35.820Z,95580.59
2023-04-28T01:40:04.109Z,95579.31
2023-04-28T01:42:33.626Z,95579.81
2023-04-28T01:45:01.532Z,95571.09
2023-04-28T01:47:29.456Z,95586.25
2023-04-28T01:49:57.441Z,95568.25
2023-04-28T01:52:25.513Z,95586.84
2023-04-28T01:54:53.540Z,95539.25
2023-04-28T01:57:22.487Z,95591.09
2023-04-28T01:59:52.224Z,95571.97
2023-04-28T02:02:20.252Z,95573.34
2023-04-28T02:04:48.417Z,95589.19
2023-04-28T02:07:16.383Z,95574.63
2023-04-28T02:09:44.343Z,95582.34
2023-04-28T02:12:12.629Z,95544.53
2023-04-28T02:14:40.566Z,95596.03
2023-04-28T02:17:09.985Z,95596.03
2023-04-28T02:19:38.802Z,95595.00
2023-04-28T02:22:07.417Z,95581.22
2023-04-28T02:24:37.267Z,95591.72
2023-04-28T02:27:05.540Z,95600.44
2023-04-28T02:29:33.680Z,95610.84
2023-04-28T02:32:01.797Z,95584.75
2023-04-28T02:34:31.364Z,95592.47
2023-04-28T02:36:59.384Z,95600.25
2023-04-28T02:39:28.309Z,95608.53
2023-04-28T02:41:56.847Z,95604.34
2023-04-28T02:44:25.036Z,95614.25
2023-04-28T02:46:53.139Z,95605.53
2023-04-28T02:49:21.259Z,95620.69
2023-04-28T02:51:50.616Z,95617.59
2023-04-28T02:54:27.388Z,95605.66
2023-04-28T02:56:55.873Z,95618.38
2023-04-28T02:59:24.146Z,95625.31
2023-04-28T03:01:52.803Z,95611.59
2023-04-28T03:04:21.061Z,95625.38
2023-04-28T03:06:51.005Z,95624.94
2023-04-28T03:09:18.941Z,95630.22
2023-04-28T03:11:47.112Z,95626.47
2023-04-28T03:14:15.294Z,95625.38
2023-04-28T03:16:43.609Z,95623.81
2023-04-28T03:19:11.678Z,95625.19
2023-04-28T03:21:39.639Z,95635.56
2023-04-28T03:24:09.182Z,95638.75
2023-04-28T03:26:37.383Z,95636.38
2023-04-28T03:29:05.501Z,95646.28
2023-04-28T03:31:33.694Z,95659.56
2023-04-28T03:34:03.411Z,95656.31
2023-04-28T03:36:32.143Z,95656.91
2023-04-28T03:39:00.473Z,95612.59
2023-04-28T03:41:29.896Z,95667.78
2023-04-28T03:43:57.989Z,95608.28
2023-04-28T03:46:26.200Z,95669.09
2023-04-28T03:48:54.543Z,95679.72
2023-04-28T03:51:22.839Z,95679.47
2023-04-28T03:53:51.041Z,95641.00
2023-04-28T03:56:19.916Z,95685.69
2023-04-28T03:58:49.484Z,95673.25
2023-04-28T04:01:17.466Z,95684.94
2023-04-28T04:03:45.918Z,95698.19
2023-04-28T04:06:14.675Z,95647.28
2023-04-28T04:08:43.420Z,95698.69
2023-04-28T04:11:11.614Z,95705.31
2023-04-28T04:13:39.555Z,95686.59
2023-04-28T04:16:09.320Z,95700.34
2023-04-28T04:18:37.505Z,95697.59
2023-04-28T04:21:06.270Z,95710.22
2023-04-28T04:23:34.320Z,95716.16
2023-04-28T04:26:02.349Z,95698.25
2023-04-28T04:28:30.518Z,95713.59
2023-04-28T04:30:58.643Z,95697.44
2023-04-28T04:33:29.801Z,95716.31
2023-04-28T04:35:58.049Z,95666.63
2023-04-28T04:38:26.121Z,95703.50
2023-04-28T04:40:54.134Z,95720.53
2023-04-28T04:43:22.239Z,95715.69
2023-04-28T04:45:50.530Z,95705.25
2023-04-28T04:48:18.536Z,95713.72
2023-04-28T04:50:48.419Z,95718.19
2023-04-28T04:53:16.716Z,95732.97
2023-04-28T04:55:44.857Z,95734.59
2023-04-28T04:58:12.998Z,95732.16
2023-04-28T05:00:41.063Z,95698.53
2023-04-28T05:03:09.718Z,95733.84
2023-04-28T05:05:37.868Z,95735.38
2023-04-28T05:08:07.626Z,95732.50
2023-04-28T05:10:35.701Z,95727.78
2023-04-28T05:13:03.913Z,95738.81
2023-04-28T05:15:32.210Z,95714.41
2023-04-28T05:18:00.289Z,95733.88
2023-04-28T05:20:29.197Z,95739.16
2023-04-28T05:22:57.241Z,95734.38
2023-04-28T05:25:28.154Z,95730.88
2023-04-28T05:27:56.353Z,95735.75
2023-04-28T05:30:25.501Z,95736.00
2023-04-28T05:32:55.437Z,95737.25
2023-04-28T05:35:23.542Z,95730.88
2023-04-28T05:37:51.661Z,95736.66
2023-04-28T05:40:19.951Z,95732.59
2023-04-28T05:42:49.425Z,95728.13
2023-04-28T05:45:17.639Z,95723.13
2023-04-28T05:47:45.722Z,95733.72
2023-04-28T05:50:16.639Z,95726.88
2023-04-28T05:52:46.233Z,95715.09
2023-04-28T05:55:14.295Z,95743.00
2023-04-28T05:57:52.395Z,95730.84
2023-04-28T06:00:23.144Z,95735.75
2023-04-28T06:02:51.246Z,95733.84
2023-04-28T06:05:19.447Z,95741.59
2023-04-28T06:07:49.966Z,95741.13
2023-04-28T06:10:18.431Z,95738.69
2023-04-28T06:12:46.929Z,95730.34
2023-04-28T06:15:14.964Z,95741.25
2023-04-28T06:17:44.428Z,95731.00
2023-04-28T06:20:14.191Z,95732.81
2023-04-28T06:22:42.242Z,95730.72
2023-04-28T06:25:11.047Z,95701.16
2023-04-28T06:27:39.075Z,95735.25
2023-04-28T06:30:10.052Z,95736.84
2023-04-28T06:32:38.051Z,95723.28
2023-04-28T06:35:08.579Z,95709.72
2023-04-28T06:37:36.806Z,95732.78
2023-04-28T06:40:05.128Z,95737.59
2023-04-28T06:42:33.100Z,95732.59
2023-04-28T06:45:01.042Z,95738.16
2023-04-28T06:47:29.068Z,95716.53
2023-04-28T06:49:57.509Z,95719.56
2023-04-28T06:52:38.588Z,95734.41
2023-04-28T06:55:09.449Z,95720.75
2023-04-28T06:57:38.558Z,95731.50
2023-04-28T07:00:09.297Z,95730.78
2023-04-28T07:02:37.823Z,95736.72
2023-04-28T07:05:06.587Z,95727.53
2023-04-28T07:07:36.055Z,95732.88
2023-04-28T07:10:04.499Z,95719.97
2023-04-28T07:12:32.573Z,95726.47
2023-04-28T07:15:00.535Z,95728.50
2023-04-28T07:17:28.735Z,95709.06
2023-04-28T07:19:56.710Z,95715.81
2023-04-28T07:22:24.668Z,95736.19
2023-04-28T07:24:54.046Z,95732.66
2023-04-28T07:27:22.104Z,95719.38
2023-04-28T07:29:50.346Z,95702.53
2023-04-28T07:32:18.557Z,95698.75
2023-04-28T07:34:46.616Z,95715.22
2023-04-28T07:37:15.188Z,95709.69
2023-04-28T07:39:43.180Z,95720.84
2023-04-28T07:42:12.990Z,95662.84
2023-04-28T07:44:40.976Z,95709.22
2023-04-28T07:47:09.716Z,95723.31
2023-04-28T07:49:37.769Z,95724.97
2023-04-28T07:52:06.118Z,95714.91
2023-04-28T07:54:36.882Z,95693.72
2023-04-28T07:57:06.206Z,95709.81
2023-04-28T07:59:35.937Z,95707.09
2023-04-28T08:02:04.013Z,95717.00
2023-04-28T08:04:34.123Z,95715.19
2023-04-28T08:07:02.821Z,95722.06
2023-04-28T08:09:31.155Z,95700.97
2023-04-28T08:12:01.833Z,95698.59
2023-04-28T08:14:29.974Z,95616.28
2023-04-28T08:16:59.697Z,95709.56
2023-04-28T08:19:27.656Z,95715.38
2023-04-28T08:21:56.106Z,95712.53
2023-04-28T08:24:24.080Z,95701.13
2023-04-28T08:26:52.105Z,95711.44
2023-04-28T08:29:22.648Z,95709.09
2023-04-28T08:31:53.060Z,95698.63
2023-04-28T08:34:23.364Z,95703.94
2023-04-28T08:36:52.603Z,95705.47
2023-04-28T08:39:22.961Z,95696.06
2023-04-28T08:41:51.768Z,95695.03
2023-04-28T08:44:19.945Z,95659.41
2023-04-28T08:46:50.905Z,95697.44
2023-04-28T08:49:19.948Z,95691.84
2023-04-28T08:51:57.392Z,95689.00
2023-04-28T08:54:29.244Z,95682.56
2023-04-28T08:56:58.469Z,95686.47
2023-04-28T08:59:26.952Z,95687.94
2023-04-28T09:01:55.719Z,95693.81
2023-04-28T09:04:24.228Z,95694.47
2023-04-28T09:06:54.186Z,95669.91
2023-04-28T09:09:23.571Z,95677.53
2023-04-28T09:11:56.892Z,95685.13
2023-04-28T09:14:25.474Z,95644.19
2023-04-28T09:16:54.866Z,95666.06
2023-04-28T09:19:23.793Z,95668.34
2023-04-28T09:21:55.113Z,95656.16
2023-04-28T09:24:31.317Z,95664.28
2023-04-28T09:27:00.028Z,95660.97
2023-04-28T09:29:29.680Z,95644.63
2023-04-28T09:32:17.088Z,95627.63
2023-04-28T09:34:50.538Z,95659.28
2023-04-28T09:37:21.247Z,95652.19
2023-04-28T09:39:51.468Z,95648.53
2023-04-28T09:42:36.867Z,95614.72
2023-04-28T09:45:06.734Z,95638.69
2023-04-28T09:47:36.435Z,95634.41
2023-04-28T09:50:06.804Z,95643.50
2023-04-28T09:52:37.144Z,95635.44
2023-04-28T09:55:07.138Z,95629.69
2023-04-28T09:57:37.169Z,95624.00
2023-04-28T10:00:07.726Z,95629.41
2023-04-28T10:05:11.618Z,95610.63
2023-04-28T10:07:47.607Z,95609.88
2023-04-28T10:10:16.405Z,95612.25
2023-04-28T10:12:55.880Z,95615.78
2023-04-28T10:15:24.974Z,95609.13
2023-04-28T10:17:54.667Z,95606.94
2023-04-28T10:20:26.438Z,95613.09
2023-04-28T10:23:04.723Z,95614.66
2023-04-28T10:25:37.287Z,95602.72
2023-04-28T10:28:11.046Z,95577.78
2023-04-28T10:30:39.363Z,95593.31
2023-04-28T10:33:31.708Z,95576.19
2023-04-28T10:36:01.452Z,95590.81
2023-04-28T10:38:29.880Z,95587.47
2023-04-28T10:41:02.936Z,95585.63
2023-04-28T10:43:45.153Z,95572.31
2023-04-28T10:46:15.671Z,95579.41
2023-04-28T10:49:03.774Z,95536.25
2023-04-28T10:51:39.405Z,95575.44
2023-04-28T10:54:26.135Z,95574.53
2023-04-28T10:57:23.427Z,95565.66
2023-04-28T10:59:53.511Z,95560.13
2023-04-28T11:02:45.190Z,95562.44
2023-04-28T11:05:15.661Z,95544.66
2023-04-28T11:08:35.055Z,95537.16
2023-04-28T11:11:25.072Z,95565.16
2023-04-28T11:13:54.682Z,95541.44
2023-04-28T11:16:24.910Z,95550.03
2023-04-28T11:19:03.994Z,95540.75
2023-04-28T11:21:33.146Z,95547.84
2023-04-28T11:24:01.207Z,95538.16
2023-04-28T11:26:31.065Z,95531.50
2023-04-28T11:28:59.733Z,95531.53
2023-04-28T11:31:51.224Z,95532.72
2023-04-28T11:34:21.825Z,95522.53
2023-04-28T11:36:49.737Z,95515.88
2023-04-28T11:39:17.858Z,95486.47
2023-04-28T11:41:47.657Z,95487.25
2023-04-28T11:44:17.018Z,95517.44
2023-04-28T11:46:51.209Z,95508.81
2023-04-28T11:49:21.205Z,95496.28
2023-04-28T11:51:50.429Z,95513.78
2023-04-28T11:54:23.596Z,95509.44
2023-04-28T11:56:54.325Z,95504.38
2023-04-28T11:59:27.071Z,95469.97
2023-04-28T12:01:57.370Z,95497.38
2023-04-28T12:04:30.148Z,95497.00
2023-04-28T12:07:03.262Z,95496.91
2023-04-28T12:09:31.705Z,95432.59
2023-04-28T12:12:03.056Z,95495.91
2023-04-28T12:14:33.137Z,95484.91
2023-04-28T12:17:02.400Z,95480.16
2023-04-28T12:19:30.555Z,95474.25
2023-04-28T12:22:03.777Z,95453.47
2023-04-28T12:24:32.542Z,95462.97
2023-04-28T12:27:18.712Z,95368.03
2023-04-28T12:29:48.033Z,95473.31
2023-04-28T12:32:16.804Z,95453.47
2023-04-28T12:34:47.186Z,95463.63
2023-04-28T12:37:15.473Z,95456.41
2023-04-28T12:39:44.393Z,95456.06
2023-04-28T12:42:12.777Z,95457.56
2023-04-28T12:44:42.098Z,95449.22
2023-04-28T12:47:12.067Z,95445.84
2023-04-28T12:49:40.435Z,95435.88
2023-04-28T12:52:08.471Z,95452.44
2023-04-28T12:54:38.209Z,95408.88
2023-04-28T12:57:06.691Z,95438.16
2023-04-28T12:59:34.787Z,95421.78
2023-04-28T13:02:04.356Z,95431.53
2023-04-28T13:04:33.337Z,95435.53
2023-04-28T13:07:01.767Z,95428.63
2023-04-28T13:09:29.944Z,95411.47
2023-04-28T13:11:58.763Z,95424.91
2023-04-28T13:14:28.106Z,95414.84
2023-04-28T13:16:56.548Z,95417.69
2023-04-28T13:19:25.986Z,95415.81
2023-04-28T13:21:54.262Z,95423.88
2023-04-28T13:24:24.661Z,95405.88
2023-04-28T13:26:53.109Z,95415.78
2023-04-28T13:29:21.697Z,95417.03
2023-04-28T13:31:50.052Z,95418.22
2023-04-28T13:34:19.057Z,95412.03
2023-04-28T13:36:50.957Z,95404.16
2023-04-28T13:39:20.391Z,95419.88
2023-04-28T13:41:49.385Z,95409.44
2023-04-28T13:44:18.001Z,95379.69
2023-04-28T13:46:46.079Z,95402.56
2023-04-28T13:49:15.353Z,95350.84
2023-04-28T13:51:43.356Z,95381.59
2023-04-28T13:54:14.623Z,95383.72
2023-04-28T13:56:44.577Z,95393.72
2023-04-28T13:59:13.162Z,95402.06
2023-04-28T14:01:41.934Z,95387.69
2023-04-28T14:04:10.164Z,95385.00
2023-04-28T14:06:38.570Z,95380.66
2023-04-28T14:09:06.813Z,95385.50
2023-04-28T14:11:36.150Z,95380.53
2023-04-28T14:14:05.201Z,95387.59
2023-04-28T14:16:33.216Z,95386.81
2023-04-28T14:19:01.867Z,95384.81
2023-04-28T14:21:29.940Z,95397.75
2023-04-28T14:23:58.335Z,95366.91
2023-04-28T14:26:26.648Z,95381.09
2023-04-28T14:28:56.343Z,95389.19
2023-04-28T14:31:25.448Z,95369.44
2023-04-28T14:33:53.447Z,95354.88
2023-04-28T14:36:21.500Z,95362.84
2023-04-28T14:38:49.471Z,95355.63
2023-04-28T14:41:17.501Z,95349.97
2023-04-28T14:43:46.281Z,95353.66
2023-04-28T14:46:17.592Z,95355.13
2023-04-28T14:48:45.797Z,95315.66
2023-04-28T14:51:15.172Z,95344.31
2023-04-28T14:53:43.317Z,95351.53
2023-04-28T14:58:45.301Z,95350.41
2023-04-28T15:01:13.352Z,95350.00
2023-04-28T15:03:43.214Z,95335.06
2023-04-28T15:06:11.910Z,95358.91
2023-04-28T15:08:40.557Z,95355.25
2023-04-28T15:11:08.686Z,95350.59
2023-04-28T15:13:37.270Z,95342.06
2023-04-28T15:16:06.175Z,95364.03
2023-04-28T15:18:34.148Z,95356.63
2023-04-28T15:21:03.839Z,95363.84
2023-04-28T15:23:31.958Z,95309.31
2023-04-28T15:26:00.029Z,95351.03
2023-04-28T15:28:45.677Z,95239.50
2023-04-28T15:31:13.685Z,95354.88
2023-04-28T15:33:41.813Z,95356.09
2023-04-28T15:36:11.695Z,95310.88
2023-04-28T15:38:39.980Z,95347.00
2023-04-28T15:41:08.032Z,95346.09
2023-04-28T15:43:37.509Z,95344.00
2023-04-28T15:46:08.930Z,95336.69
2023-04-28T15:48:38.389Z,95321.06
2023-04-28T15:51:06.645Z,95314.84
2023-04-28T15:53:36.087Z,95346.47
2023-04-28T15:56:04.477Z,95345.97
2023-04-28T15:58:32.566Z,95316.53
2023-04-28T16:01:00.806Z,95316.44
2023-04-28T16:03:29.131Z,95340.72
2023-04-28T16:05:57.686Z,95341.06
2023-04-28T16:08:25.808Z,95341.75
2023-04-28T16:10:55.218Z,95317.88
2023-04-28T16:13:23.407Z,95330.44
2023-04-28T16:15:51.831Z,95333.16
2023-04-28T16:18:19.793Z,95333.25
2023-04-28T16:20:48.096Z,95348.47
2023-04-28T16:23:16.805Z,95351.38
2023-04-28T16:25:44.892Z,95343.59
2023-04-28T16:28:14.556Z,95349.81
2023-04-28T16:30:42.571Z,95345.91
2023-04-28T16:33:10.732Z,95345.34
2023-04-28T16:35:39.434Z,95320.78
2023-04-28T16:38:09.273Z,95347.03
2023-04-28T16:40:37.403Z,95307.94
2023-04-28T16:43:05.391Z,95289.38
2023-04-28T16:45:35.144Z,95350.19
2023-04-28T16:48:03.178Z,95352.09
2023-04-28T16:50:31.224Z,95350.09
2023-04-28T16:52:59.353Z,95335.97
2023-04-28T16:55:27.567Z,95356.84
2023-04-28T16:57:55.843Z,95355.56
2023-04-28T17:00:24.303Z,95359.72
2023-04-28T17:02:53.862Z,95364.31
2023-04-28T17:05:22.204Z,95361.44
2023-04-28T17:07:50.241Z,95351.69
2023-04-28T17:10:18.182Z,95356.00
2023-04-28T17:12:46.178Z,95356.84
2023-04-28T17:15:17.281Z,95371.78
2023-04-28T17:17:45.616Z,95370.69
2023-04-28T17:20:20.339Z,95350.66
2023-04-28T17:22:48.750Z,95368.25
2023-04-28T17:25:17.393Z,95385.31
2023-04-28T17:27:45.590Z,95388.31
2023-04-28T17:30:14.270Z,95394.78
2023-04-28T17:32:42.852Z,95390.53
2023-04-28T17:35:11.015Z,95371.88
2023-04-28T17:37:40.396Z,95390.63
2023-04-28T17:40:09.960Z,95386.56
2023-04-28T17:42:38.096Z,95402.25
2023-04-28T17:45:07.742Z,95401.63
2023-04-28T17:47:36.400Z,95394.72
2023-04-28T17:50:05.125Z,95416.41
2023-04-28T17:52:33.082Z,95419.13
2023-04-28T17:55:02.445Z,95396.59
2023-04-28T17:57:30.551Z,95404.00
2023-04-28T17:59:58.583Z,95428.91
2023-04-28T18:02:26.848Z,95424.94
2023-04-28T18:04:55.024Z,95419.41
2023-04-28T18:07:23.185Z,95429.28
2023-04-28T18:09:53.035Z,95445.06
2023-04-28T18:12:22.365Z,95436.84
2023-04-28T18:14:50.588Z,95445.78
2023-04-28T18:17:28.851Z,95424.16
2023-04-28T18:19:57.965Z,95442.44
2023-04-28T18:22:26.078Z,95457.66
2023-04-28T18:24:54.297Z,95457.31
2023-04-28T18:27:24.115Z,95454.81
2023-04-28T18:29:52.209Z,95464.41
2023-04-28T18:32:20.247Z,95415.84
2023-04-28T18:34:49.451Z,95440.53
2023-04-28T18:37:17.665Z,95465.19
2023-04-28T18:39:45.607Z,95440.41
2023-04-28T18:42:13.616Z,95466.78
2023-04-28T18:44:42.851Z,95466.78
2023-04-28T18:47:10.921Z,95459.78
2023-04-28T18:49:39.565Z,95466.97
2023-04-28T18:52:07.514Z,95483.88
2023-04-28T18:54:42.087Z,95481.72
2023-04-28T18:57:11.443Z,95368.59
2023-04-28T18:59:41.019Z,95492.72
2023-04-28T19:02:11.913Z,95490.25
2023-04-28T19:04:42.821Z,95415.22
2023-04-28T19:07:12.140Z,95447.56
2023-04-28T19:09:43.332Z,95441.78
2023-04-28T19:12:14.121Z,95469.88
2023-04-28T19:14:46.391Z,95483.78
2023-04-28T19:17:18.512Z,95486.69
2023-04-28T19:19:49.414Z,95487.53
2023-04-28T19:22:32.633Z,95471.19
2023-04-28T19:25:01.539Z,95448.69
2023-04-28T19:27:32.267Z,95448.72
2023-04-28T19:30:00.644Z,95479.47
2023-04-28T19:32:30.227Z,95459.88
2023-04-28T19:34:58.668Z,95462.97
2023-04-28T19:37:27.396Z,95472.19
2023-04-28T19:39:55.324Z,95472.72
2023-04-28T19:42:23.442Z,95468.19
2023-04-28T19:44:56.592Z,95433.94
2023-04-28T19:47:25.155Z,95445.81
2023-04-28T19:49:55.032Z,95483.06
2023-04-28T19:52:23.899Z,95466.78
2023-04-28T19:54:53.272Z,95438.94
2023-04-28T19:57:22.569Z,95480.44
2023-04-28T19:59:51.148Z,95474.88
2023-04-28T20:02:21.648Z,95438.88
2023-04-28T20:04:50.027Z,95471.31
2023-04-28T20:07:20.039Z,95471.84
2023-04-28T20:09:49.887Z,95449.38
2023-04-28T20:12:19.435Z,95470.84
2023-04-28T20:14:47.480Z,95461.22
2023-04-28T20:17:17.011Z,95458.09
2023-04-28T20:19:45.076Z,95468.06
2023-04-28T20:22:13.204Z,95453.50
2023-04-28T20:24:43.016Z,95466.00
2023-04-28T20:27:12.099Z,95454.81
2023-04-28T20:29:40.145Z,95437.78
2023-04-28T20:32:09.199Z,95453.00
2023-04-28T20:34:42.028Z,95457.94
2023-04-28T20:37:12.257Z,95430.00
2023-04-28T20:39:40.381Z,95451.22
2023-04-28T20:42:10.232Z,95452.81
2023-04-28T20:44:38.210Z,95456.63
2023-04-28T20:47:06.328Z,95391.13
2023-04-28T20:49:34.702Z,95450.94
2023-04-28T20:52:06.536Z,95449.53
2023-04-28T20:54:37.730Z,95451.31
2023-04-28T20:57:05.978Z,95381.63
2023-04-28T20:59:36.010Z,95445.94
2023-04-28T21:02:04.082Z,95443.75
2023-04-28T21:04:32.204Z,95424.81
2023-04-28T21:07:00.369Z,95457.88
2023-04-28T21:09:28.463Z,95457.44
2023-04-28T21:11:56.492Z,95464.06
2023-04-28T21:14:24.693Z,95444.78
2023-04-28T21:16:54.772Z,95450.19
2023-04-28T21:19:22.841Z,95454.63
2023-04-28T21:21:50.897Z,95442.16
2023-04-28T21:24:18.961Z,95428.72
2023-04-28T21:26:47.744Z,95466.06
2023-04-28T21:29:18.520Z,95460.22
2023-04-28T21:31:47.408Z,95452.59
2023-04-28T21:34:16.878Z,95451.50
2023-04-28T21:36:44.965Z,95432.53
2023-04-28T21:39:12.953Z,95447.53
2023-04-28T21:41:41.127Z,95448.66
2023-04-28T21:44:09.041Z,95393.28
2023-04-28T21:46:37.544Z,95450.41
2023-04-28T21:49:05.848Z,95423.66
2023-04-28T21:51:35.533Z,95426.00
2023-04-28T21:54:03.952Z,95439.31
2023-04-28T21:56:31.965Z,95439.63
2023-04-28T21:59:00.141Z,95375.38
2023-04-28T22:01:28.485Z,95436.28
2023-04-28T22:03:56.952Z,95445.22
2023-04-28T22:06:25.381Z,95445.63
2023-04-28T22:08:55.088Z,95435.06
2023-04-28T22:11:23.340Z,95438.09
2023-04-28T22:13:51.393Z,95392.63
2023-04-28T22:16:19.601Z,95424.16
2023-04-28T22:18:48.042Z,95442.13
2023-04-28T22:21:16.488Z,95442.28
2023-04-28T22:23:44.492Z,95438.50
2023-04-28T22:26:14.418Z,95439.25
2023-04-28T22:28:42.612Z,95441.47
2023-04-28T22:31:10.948Z,95441.13
2023-04-28T22:33:39.479Z,95433.19
2023-04-28T22:36:08.483Z,95436.66
2023-04-28T22:38:36.691Z,95425.06
2023-04-28T22:41:05.606Z,95435.19
2023-04-28T22:43:35.070Z,95434.66
2023-04-28T22:46:03.626Z,95417.34
2023-04-28T22:48:31.868Z,95429.59
2023-04-28T22:50:59.985Z,95414.25
2023-04-28T22:53:28.156Z,95424.09
2023-04-28T22:55:57.681Z,95401.81
2023-04-28T22:58:25.800Z,95413.13
2023-04-28T23:00:55.251Z,95409.63
2023-04-28T23:03:23.615Z,95409.03
2023-04-28T23:05:52.024Z,95350.28
2023-04-28T23:08:20.121Z,95405.06
2023-04-28T23:10:48.185Z,95400.66
2023-04-28T23:13:16.532Z,95396.09
2023-04-28T23:15:44.683Z,95402.66
2023-04-28T23:18:14.161Z,95374.53
2023-04-28T23:20:42.179Z,95400.13
2023-04-28T23:23:10.274Z,95394.78
2023-04-28T23:25:41.941Z,95388.91
2023-04-28T23:28:11.056Z,95400.31
2023-04-28T23:30:39.242Z,95394.78
2023-04-28T23:33:07.283Z,95392.72
2023-04-28T23:35:55.232Z,95370.88
2023-04-28T23:38:23.532Z,95375.94
2023-04-28T23:40:51.518Z,95393.38
2023-04-28T23:43:19.714Z,95394.31
2023-04-28T23:45:47.909Z,95377.63
2023-04-28T23:48:16.057Z,95372.41
2023-04-28T23:50:45.452Z,95355.03
2023-04-28T23:53:13.537Z,95381.47
2023-04-28T23:55:41.797Z,95376.13
2023-04-28T23:58:09.862Z,95378.81
